Time,TemperatureF,DewpointF,PressureIn,WindDirection,WindDirectionDegrees,WindSpeedMPH,WindSpeedGustMPH,Humidity,HourlyPrecipIn,Conditions,Clouds,dailyrainin,SoftwareType,DateUTC
2013-07-23 00:14:00,69.6,67.2,29.73,NNE,22,0.0,-999.0,92,-99.99,,,0.02,Acu-Link.com,2013-07-23 04:14:00,
2013-07-23 00:29:00,69.4,67.3,29.73,NE,45,0.0,-999.0,93,-99.99,,,0.05,Acu-Link.com,2013-07-23 04:29:00,
2013-07-23 00:44:00,69.4,67.3,29.72,NNE,22,0.0,-999.0,93,-99.99,,,0.07,Acu-Link.com,2013-07-23 04:44:00,
2013-07-23 00:59:00,69.4,67.6,29.71,WNW,292,0.0,-999.0,94,-99.99,,,0.13,Acu-Link.com,2013-07-23 04:59:00,
2013-07-23 01:14:00,69.4,67.6,29.71,West,270,1.1,-999.0,94,-99.99,,,0.18,Acu-Link.com,2013-07-23 05:14:00,
2013-07-23 01:30:00,69.3,67.5,29.71,NNW,337,0.0,-999.0,94,-99.99,,,0.20,Acu-Link.com,2013-07-23 05:30:00,
2013-07-23 01:45:00,69.3,67.5,29.70,West,270,1.1,-999.0,94,-99.99,,,0.35,Acu-Link.com,2013-07-23 05:45:00,
2013-07-23 02:00:00,69.1,67.3,29.69,WSW,247,0.0,-999.0,94,-99.99,,,0.36,Acu-Link.com,2013-07-23 06:00:00,
2013-07-23 02:15:00,69.1,67.3,29.68,NNW,337,0.0,-999.0,94,-99.99,,,0.36,Acu-Link.com,2013-07-23 06:15:00,
2013-07-23 02:30:00,68.9,67.1,29.67,West,270,1.1,-999.0,94,-99.99,,,0.36,Acu-Link.com,2013-07-23 06:30:00,
2013-07-23 02:46:00,68.5,66.7,29.67,NW,315,0.0,-999.0,94,-99.99,,,0.36,Acu-Link.com,2013-07-23 06:46:00,
2013-07-23 03:01:00,68.5,66.7,29.66,West,270,0.0,-999.0,94,-99.99,,,0.36,Acu-Link.com,2013-07-23 07:01:00,
2013-07-23 03:16:00,68.5,67.0,29.65,NNE,22,0.0,-999.0,95,-99.99,,,0.36,Acu-Link.com,2013-07-23 07:16:00,
2013-07-23 03:32:00,68.4,66.9,29.65,NNW,337,2.2,-999.0,95,-99.99,,,0.37,Acu-Link.com,2013-07-23 07:32:00,
2013-07-23 03:47:00,68.2,66.7,29.63,WNW,292,0.0,-999.0,95,-99.99,,,0.42,Acu-Link.com,2013-07-23 07:47:00,
2013-07-23 04:02:00,68.2,66.7,29.63,West,270,0.0,-999.0,95,-99.99,,,0.48,Acu-Link.com,2013-07-23 08:02:00,
2013-07-23 04:17:00,68.0,66.5,29.63,West,270,0.0,-999.0,95,-99.99,,,0.51,Acu-Link.com,2013-07-23 08:17:00,
2013-07-23 04:33:00,68.0,66.5,29.62,NNE,22,0.0,-999.0,95,-99.99,,,0.57,Acu-Link.com,2013-07-23 08:33:00,
2013-07-23 04:48:00,67.8,66.3,29.61,WSW,247,0.0,-999.0,95,-99.99,,,0.62,Acu-Link.com,2013-07-23 08:48:00,
2013-07-23 05:03:00,67.8,66.3,29.60,NNW,337,1.6,-999.0,95,-99.99,,,0.62,Acu-Link.com,2013-07-23 09:03:00,
2013-07-23 05:18:00,68.0,66.8,29.60,East,90,2.2,-999.0,96,-99.99,,,0.63,Acu-Link.com,2013-07-23 09:18:00,
2013-07-23 05:33:00,68.4,67.2,29.60,NNE,22,0.0,-999.0,96,-99.99,,,0.67,Acu-Link.com,2013-07-23 09:33:00,
2013-07-23 05:49:00,68.7,67.8,29.60,NE,45,0.0,-999.0,97,-99.99,,,0.69,Acu-Link.com,2013-07-23 09:49:00,
2013-07-23 06:04:00,68.7,67.8,29.60,NE,45,0.0,-999.0,97,-99.99,,,0.70,Acu-Link.com,2013-07-23 10:04:00,
2013-07-23 06:19:00,68.7,67.8,29.60,ENE,67,0.0,-999.0,97,-99.99,,,0.70,Acu-Link.com,2013-07-23 10:19:00,
2013-07-23 06:35:00,68.7,67.8,29.59,East,90,0.0,-999.0,97,-99.99,,,0.71,Acu-Link.com,2013-07-23 10:35:00,
2013-07-23 06:50:00,68.7,67.8,29.59,East,90,0.0,-999.0,97,-99.99,,,0.72,Acu-Link.com,2013-07-23 10:50:00,
2013-07-23 07:05:00,68.9,68.0,29.58,SSE,157,0.0,-999.0,97,-99.99,,,0.72,Acu-Link.com,2013-07-23 11:05:00,
2013-07-23 07:20:00,69.1,68.2,29.58,ENE,67,0.0,-999.0,97,-99.99,,,0.74,Acu-Link.com,2013-07-23 11:20:00,
2013-07-23 07:35:00,69.4,68.5,29.57,East,90,0.0,-999.0,97,-99.99,,,0.74,Acu-Link.com,2013-07-23 11:35:00,
2013-07-23 07:51:00,70.2,69.3,29.57,NE,45,1.6,-999.0,97,-99.99,,,0.74,Acu-Link.com,2013-07-23 11:51:00,
2013-07-23 08:06:00,70.2,69.3,29.56,East,90,0.0,-999.0,97,-99.99,,,0.74,Acu-Link.com,2013-07-23 12:06:00,
2013-07-23 08:21:00,70.9,69.7,29.56,ENE,67,0.0,-999.0,96,-99.99,,,0.74,Acu-Link.com,2013-07-23 12:21:00,
2013-07-23 08:37:00,71.4,69.6,29.55,NE,45,0.0,-999.0,94,-99.99,,,0.74,Acu-Link.com,2013-07-23 12:37:00,
2013-07-23 08:52:00,73.4,70.6,29.55,South,180,1.1,-999.0,91,-99.99,,,0.74,Acu-Link.com,2013-07-23 12:52:00,
2013-07-23 09:07:00,74.7,71.5,29.54,South,180,0.0,-999.0,90,-99.99,,,0.74,Acu-Link.com,2013-07-23 13:07:00,
2013-07-23 09:23:00,75.0,71.2,29.54,West,270,0.0,-999.0,88,-99.99,,,0.74,Acu-Link.com,2013-07-23 13:23:00,
2013-07-23 09:38:00,75.6,71.4,29.53,SE,135,0.0,-999.0,87,-99.99,,,0.74,Acu-Link.com,2013-07-23 13:38:00,
2013-07-23 09:53:00,75.2,71.4,29.53,West,270,1.6,-999.0,88,-99.99,,,0.74,Acu-Link.com,2013-07-23 13:53:00,
2013-07-23 10:08:00,75.7,70.9,29.52,West,270,2.7,-999.0,85,-99.99,,,0.74,Acu-Link.com,2013-07-23 14:08:00,
2013-07-23 10:24:00,76.3,71.1,29.51,NW,315,1.6,-999.0,84,-99.99,,,0.74,Acu-Link.com,2013-07-23 14:24:00,
2013-07-23 10:39:00,75.2,70.7,29.52,West,270,3.8,-999.0,86,-99.99,,,0.74,Acu-Link.com,2013-07-23 14:39:00,
2013-07-23 10:54:00,75.4,70.9,29.51,West,270,3.1,-999.0,86,-99.99,,,0.74,Acu-Link.com,2013-07-23 14:54:00,
2013-07-23 11:10:00,74.3,70.2,29.51,West,270,2.2,-999.0,87,-99.99,,,0.77,Acu-Link.com,2013-07-23 15:10:00,
2013-07-23 11:25:00,75.9,71.1,29.51,ESE,112,0.0,-999.0,85,-99.99,,,0.77,Acu-Link.com,2013-07-23 15:25:00,
2013-07-23 11:40:00,77.7,69.9,29.51,WNW,292,3.1,-999.0,77,-99.99,,,0.77,Acu-Link.com,2013-07-23 15:40:00,
2013-07-23 11:56:00,77.9,68.9,29.51,WSW,247,3.8,-999.0,74,-99.99,,,0.77,Acu-Link.com,2013-07-23 15:56:00,
2013-07-23 12:11:00,79.7,69.9,29.50,West,270,3.8,-999.0,72,-99.99,,,0.77,Acu-Link.com,2013-07-23 16:11:00,
2013-07-23 12:26:00,77.5,68.6,29.50,NNE,22,2.7,-999.0,74,-99.99,,,0.77,Acu-Link.com,2013-07-23 16:26:00,
2013-07-23 12:41:00,77.4,68.4,29.50,NNE,22,3.1,-999.0,74,-99.99,,,0.77,Acu-Link.com,2013-07-23 16:41:00,
2013-07-23 12:57:00,79.9,68.8,29.51,NNW,337,2.7,-999.0,69,-99.99,,,0.77,Acu-Link.com,2013-07-23 16:57:00,
2013-07-23 13:12:00,77.2,67.8,29.51,NNW,337,2.2,-999.0,73,-99.99,,,0.77,Acu-Link.com,2013-07-23 17:12:00,
2013-07-23 13:27:00,79.2,67.7,29.51,WSW,247,4.3,-999.0,68,-99.99,,,0.77,Acu-Link.com,2013-07-23 17:27:00,
2013-07-23 13:43:00,75.9,67.0,29.50,WSW,247,2.7,-999.0,74,-99.99,,,0.77,Acu-Link.com,2013-07-23 17:43:00,
2013-07-23 13:58:00,78.8,67.3,29.50,SW,225,5.1,-999.0,68,-99.99,,,0.77,Acu-Link.com,2013-07-23 17:58:00,
2013-07-23 14:13:00,77.4,67.2,29.50,SSW,202,2.7,-999.0,71,-99.99,,,0.77,Acu-Link.com,2013-07-23 18:13:00,
2013-07-23 14:29:00,78.8,66.9,29.50,ESE,112,2.7,-999.0,67,-99.99,,,0.77,Acu-Link.com,2013-07-23 18:29:00,
2013-07-23 14:44:00,77.9,67.3,29.50,North,0,2.7,-999.0,70,-99.99,,,0.77,Acu-Link.com,2013-07-23 18:44:00,
2013-07-23 14:59:00,76.8,65.9,29.50,NE,45,3.1,-999.0,69,-99.99,,,0.77,Acu-Link.com,2013-07-23 18:59:00,
2013-07-23 15:14:00,80.4,68.0,29.49,NW,315,1.6,-999.0,66,-99.99,,,0.77,Acu-Link.com,2013-07-23 19:14:00,
2013-07-23 15:29:00,80.4,66.6,29.48,SW,225,4.3,-999.0,63,-99.99,,,0.77,Acu-Link.com,2013-07-23 19:29:00,
2013-07-23 15:45:00,81.5,67.7,29.49,West,270,1.6,-999.0,63,-99.99,,,0.77,Acu-Link.com,2013-07-23 19:45:00,
2013-07-23 16:00:00,82.0,67.7,29.48,East,90,3.1,-999.0,62,-99.99,,,0.77,Acu-Link.com,2013-07-23 20:00:00,
2013-07-23 16:15:00,81.0,67.6,29.48,NNW,337,2.2,-999.0,64,-99.99,,,0.77,Acu-Link.com,2013-07-23 20:15:00,
2013-07-23 16:31:00,82.9,68.1,29.49,WNW,292,2.2,-999.0,61,-99.99,,,0.77,Acu-Link.com,2013-07-23 20:31:00,
2013-07-23 16:46:00,86.5,70.0,29.49,ENE,67,0.0,-999.0,58,-99.99,,,0.77,Acu-Link.com,2013-07-23 20:46:00,
2013-07-23 17:01:00,84.2,68.3,29.48,West,270,2.2,-999.0,59,-99.99,,,0.77,Acu-Link.com,2013-07-23 21:01:00,
2013-07-23 17:31:00,79.9,67.0,29.47,ESE,112,2.7,-999.0,65,-99.99,,,0.77,Acu-Link.com,2013-07-23 21:31:00,
2013-07-23 18:02:00,77.9,65.6,29.46,SSW,202,0.0,-999.0,66,-99.99,,,0.77,Acu-Link.com,2013-07-23 22:02:00,
2013-07-23 18:17:00,76.5,66.3,29.46,NE,45,1.1,-999.0,71,-99.99,,,0.77,Acu-Link.com,2013-07-23 22:17:00,
2013-07-23 18:32:00,75.9,66.2,29.46,NE,45,0.0,-999.0,72,-99.99,,,0.77,Acu-Link.com,2013-07-23 22:32:00,
2013-07-23 18:48:00,75.4,66.5,29.47,ESE,112,0.0,-999.0,74,-99.99,,,0.77,Acu-Link.com,2013-07-23 22:48:00,
2013-07-23 19:03:00,75.4,66.1,29.47,ENE,67,1.6,-999.0,73,-99.99,,,0.77,Acu-Link.com,2013-07-23 23:03:00,
2013-07-23 19:18:00,75.0,66.2,29.48,ENE,67,1.6,-999.0,74,-99.99,,,0.77,Acu-Link.com,2013-07-23 23:18:00,
2013-07-23 19:33:00,75.0,67.7,29.48,North,0,0.0,-999.0,78,-99.99,,,0.77,Acu-Link.com,2013-07-23 23:33:00,
2013-07-23 19:49:00,73.8,66.8,29.49,North,0,0.0,-999.0,79,-99.99,,,0.77,Acu-Link.com,2013-07-23 23:49:00,
2013-07-23 20:19:00,72.0,66.5,29.51,NNE,22,0.0,-999.0,83,-99.99,,,0.77,Acu-Link.com,2013-07-24 00:19:00,
2013-07-23 20:35:00,71.1,65.3,29.50,NNW,337,0.0,-999.0,82,-99.99,,,0.77,Acu-Link.com,2013-07-24 00:35:00,
2013-07-23 20:50:00,70.0,65.3,29.51,NNE,22,0.0,-999.0,85,-99.99,,,0.77,Acu-Link.com,2013-07-24 00:50:00,
2013-07-23 21:05:00,69.6,64.9,29.52,SW,225,0.0,-999.0,85,-99.99,,,0.77,Acu-Link.com,2013-07-24 01:05:00,
2013-07-23 21:21:00,68.9,64.9,29.52,NNW,337,0.0,-999.0,87,-99.99,,,0.77,Acu-Link.com,2013-07-24 01:21:00,
2013-07-23 21:36:00,68.4,64.3,29.51,NE,45,0.0,-999.0,87,-99.99,,,0.77,Acu-Link.com,2013-07-24 01:36:00,
2013-07-23 21:51:00,67.8,64.1,29.51,NE,45,0.0,-999.0,88,-99.99,,,0.77,Acu-Link.com,2013-07-24 01:51:00,
2013-07-23 22:06:00,67.3,63.9,29.51,East,90,0.0,-999.0,89,-99.99,,,0.77,Acu-Link.com,2013-07-24 02:06:00,
2013-07-23 22:52:00,66.4,64.0,29.51,NNE,22,0.0,-999.0,92,-99.99,,,0.77,Acu-Link.com,2013-07-24 02:52:00,
2013-07-23 23:08:00,66.0,63.6,29.52,NNE,22,0.0,-999.0,92,-99.99,,,0.77,Acu-Link.com,2013-07-24 03:08:00,
2013-07-23 23:23:00,65.8,63.4,29.52,North,0,0.0,-999.0,92,-99.99,,,0.77,Acu-Link.com,2013-07-24 03:23:00,
2013-07-23 23:38:00,65.7,63.6,29.53,North,0,0.0,-999.0,93,-99.99,,,0.77,Acu-Link.com,2013-07-24 03:38:00,
2013-07-23 23:53:00,65.7,63.6,29.52,NNE,22,0.0,-999.0,93,-99.99,,,0.77,Acu-Link.com,2013-07-24 03:53:00,